createdAt,value
2022-08-31T00:00:43.593Z,3.55
2022-08-31T00:03:30.064Z,3.60
2022-08-31T00:06:01.297Z,3.85
2022-08-31T00:10:59.306Z,3.83
2022-08-31T00:13:29.928Z,4.90
2022-08-31T00:15:58.882Z,3.72
2022-08-31T00:18:26.925Z,3.95
2022-08-31T00:20:55.230Z,3.63
2022-08-31T00:23:23.222Z,4.22
2022-08-31T00:25:51.552Z,4.00
2022-08-31T00:28:20.777Z,4.20
2022-08-31T00:31:09.879Z,3.97
2022-08-31T00:33:39.570Z,6.47
2022-08-31T00:36:12.678Z,4.15
2022-08-31T00:38:42.114Z,9.27
2022-08-31T00:41:11.906Z,4.20
2022-08-31T00:43:57.840Z,4.18
2022-08-31T00:46:31.289Z,4.18
2022-08-31T00:49:04.553Z,6.68
2022-08-31T00:51:42.392Z,4.00
2022-08-31T00:54:13.084Z,3.67
2022-08-31T00:56:44.845Z,4.07
2022-08-31T00:59:17.709Z,4.75
2022-08-31T01:01:47.505Z,3.58
2022-08-31T01:04:16.861Z,3.92
2022-08-31T01:06:47.337Z,3.63
2022-08-31T01:09:16.463Z,3.60
2022-08-31T01:11:45.758Z,3.35
2022-08-31T01:14:14.723Z,3.65
2022-08-31T01:16:51.300Z,3.53
2022-08-31T01:19:40.809Z,5.97
2022-08-31T01:22:14.764Z,3.15
2022-08-31T01:24:47.334Z,3.67
2022-08-31T01:27:21.904Z,3.53
2022-08-31T01:29:51.068Z,3.22
2022-08-31T01:32:19.567Z,3.65
2022-08-31T01:34:48.032Z,3.33
2022-08-31T01:37:17.585Z,3.20
2022-08-31T01:39:45.865Z,3.03
2022-08-31T01:42:14.181Z,3.22
2022-08-31T01:44:42.886Z,2.78
2022-08-31T01:47:11.596Z,3.47
2022-08-31T01:49:40.240Z,3.35
2022-08-31T01:52:08.201Z,3.28
2022-08-31T01:54:36.418Z,3.33
2022-08-31T01:57:04.727Z,3.17
2022-08-31T01:59:53.220Z,3.10
2022-08-31T02:02:40.393Z,2.97
2022-08-31T02:05:10.825Z,3.17
2022-08-31T02:07:39.201Z,3.28
2022-08-31T02:10:08.324Z,3.63
2022-08-31T02:12:36.780Z,3.03
2022-08-31T02:15:09.506Z,3.20
2022-08-31T02:17:38.450Z,3.47
2022-08-31T02:20:10.881Z,3.55
2022-08-31T02:22:39.230Z,3.08
2022-08-31T02:25:08.646Z,3.03
2022-08-31T02:27:38.270Z,3.43
2022-08-31T02:30:17.164Z,2.90
2022-08-31T02:32:45.292Z,3.17
2022-08-31T02:35:14.404Z,3.15
2022-08-31T02:37:43.119Z,3.30
2022-08-31T02:40:13.367Z,2.92
2022-08-31T02:42:52.924Z,3.28
2022-08-31T02:45:25.391Z,3.30
2022-08-31T02:47:57.508Z,2.90
2022-08-31T02:50:33.697Z,3.55
2022-08-31T02:53:02.227Z,3.00
2022-08-31T02:55:36.063Z,3.03
2022-08-31T02:58:06.199Z,2.70
2022-08-31T03:00:37.982Z,3.42
2022-08-31T03:03:07.031Z,3.40
2022-08-31T03:05:35.206Z,3.45
2022-08-31T03:08:03.801Z,3.30
2022-08-31T03:10:31.805Z,3.30
2022-08-31T03:12:59.873Z,3.55
2022-08-31T03:15:29.853Z,5.85
2022-08-31T03:17:58.248Z,3.63
2022-08-31T03:20:27.874Z,3.30
2022-08-31T03:22:56.232Z,3.40
2022-08-31T03:25:27.499Z,3.65
2022-08-31T03:27:55.513Z,3.45
2022-08-31T03:30:24.359Z,3.35
2022-08-31T03:33:15.831Z,4.18
2022-08-31T03:35:46.758Z,3.38
2022-08-31T03:38:16.837Z,3.85
2022-08-31T03:40:45.254Z,3.83
2022-08-31T03:43:14.427Z,4.07
2022-08-31T03:45:44.133Z,3.80
2022-08-31T03:48:13.336Z,3.90
2022-08-31T03:50:44.450Z,5.57
2022-08-31T03:53:22.618Z,5.72
2022-08-31T03:56:01.637Z,6.50
2022-08-31T03:58:32.757Z,5.82
2022-08-31T04:01:02.739Z,5.00
2022-08-31T04:03:49.341Z,5.15
2022-08-31T04:06:36.449Z,3.95
2022-08-31T04:09:27.663Z,4.30
2022-08-31T04:12:34.463Z,4.82
2022-08-31T04:15:21.040Z,6.55
2022-08-31T04:18:25.015Z,4.82
2022-08-31T04:20:54.131Z,5.03
2022-08-31T04:23:22.219Z,4.65
2022-08-31T04:25:52.467Z,4.97
2022-08-31T04:28:20.439Z,4.93
2022-08-31T04:30:50.419Z,4.50
2022-08-31T04:33:18.567Z,4.63
2022-08-31T04:35:47.296Z,4.25
2022-08-31T04:38:16.912Z,4.40
2022-08-31T04:40:47.173Z,4.75
2022-08-31T04:43:15.724Z,4.72
2022-08-31T04:45:46.250Z,6.40
2022-08-31T04:48:15.090Z,5.57
2022-08-31T04:50:44.035Z,4.20
2022-08-31T04:53:12.483Z,6.05
2022-08-31T04:55:42.174Z,4.45
2022-08-31T04:58:14.345Z,4.65
2022-08-31T05:00:44.149Z,3.95
2022-08-31T05:03:23.533Z,4.15
2022-08-31T05:08:23.020Z,5.57
2022-08-31T05:10:53.075Z,3.72
2022-08-31T05:13:21.322Z,4.60
2022-08-31T05:15:50.727Z,4.20
2022-08-31T05:18:25.747Z,4.45
2022-08-31T05:20:58.092Z,4.75
2022-08-31T05:23:26.388Z,4.25
2022-08-31T05:25:54.772Z,4.57
2022-08-31T05:28:23.793Z,4.63
2022-08-31T05:30:52.278Z,5.15
2022-08-31T05:33:40.048Z,4.60
2022-08-31T05:36:08.900Z,5.30
2022-08-31T05:38:41.619Z,5.50
2022-08-31T05:41:11.375Z,4.80
2022-08-31T05:43:41.147Z,5.23
2022-08-31T05:46:13.330Z,5.50
2022-08-31T05:48:42.997Z,5.28
2022-08-31T05:51:19.178Z,6.20
2022-08-31T05:53:48.647Z,5.65
2022-08-31T05:56:26.496Z,5.82
2022-08-31T05:58:57.706Z,5.78
2022-08-31T06:01:31.884Z,5.93
2022-08-31T06:04:16.128Z,7.13
2022-08-31T06:06:46.208Z,5.32
2022-08-31T06:09:16.699Z,5.15
2022-08-31T06:11:48.314Z,6.53
2022-08-31T06:14:18.688Z,5.78
2022-08-31T06:16:48.731Z,5.30
2022-08-31T06:19:20.895Z,5.28
2022-08-31T06:21:51.558Z,5.65
2022-08-31T06:24:27.275Z,8.95
2022-08-31T06:27:15.846Z,4.95
2022-08-31T06:29:44.921Z,5.10
2022-08-31T06:32:15.665Z,5.10
2022-08-31T06:34:56.533Z,5.00
2022-08-31T06:37:43.572Z,4.80
2022-08-31T06:43:44.040Z,4.47
2022-08-31T06:46:41.600Z,4.68
2022-08-31T06:49:20.469Z,4.80
2022-08-31T06:51:48.747Z,4.78
2022-08-31T06:54:34.974Z,4.35
2022-08-31T06:57:29.147Z,5.47
2022-08-31T07:00:34.947Z,4.70
2022-08-31T07:03:24.274Z,6.03
2022-08-31T07:05:54.534Z,5.07
2022-08-31T07:08:23.688Z,4.60
2022-08-31T07:10:53.886Z,5.00
2022-08-31T07:13:22.560Z,5.13
2022-08-31T07:15:50.417Z,4.85
2022-08-31T07:18:18.712Z,5.93
2022-08-31T07:20:48.345Z,5.38
2022-08-31T07:23:17.755Z,5.68
2022-08-31T07:26:03.230Z,5.03
2022-08-31T07:28:34.050Z,6.30
2022-08-31T07:31:05.473Z,4.97
2022-08-31T07:33:38.262Z,5.73
2022-08-31T07:36:11.031Z,5.65
2022-08-31T07:39:32.895Z,6.25
2022-08-31T07:42:11.391Z,5.10
2022-08-31T07:44:43.019Z,5.20
2022-08-31T07:47:23.167Z,5.45
2022-08-31T07:49:54.684Z,5.43
2022-08-31T07:52:54.059Z,5.38
2022-08-31T07:55:42.062Z,5.80
2022-08-31T07:58:28.225Z,6.05
2022-08-31T08:01:03.174Z,6.07
2022-08-31T08:03:31.468Z,5.85
2022-08-31T08:06:20.434Z,6.20
2022-08-31T08:09:23.924Z,6.07
2022-08-31T08:12:13.342Z,5.47
2022-08-31T08:15:00.784Z,5.38
2022-08-31T08:17:47.281Z,5.70
2022-08-31T08:20:23.767Z,6.30
2022-08-31T08:23:18.401Z,5.82
2022-08-31T08:26:30.576Z,5.55
2022-08-31T08:29:06.472Z,5.15
2022-08-31T08:31:38.820Z,5.13
2022-08-31T08:34:07.010Z,5.05
2022-08-31T08:36:40.526Z,4.70
2022-08-31T08:39:13.037Z,4.75
2022-08-31T08:41:45.720Z,5.30
2022-08-31T08:44:18.543Z,5.00
2022-08-31T08:47:02.758Z,4.78
2022-08-31T08:49:50.860Z,4.60
2022-08-31T08:52:41.505Z,4.70
2022-08-31T08:55:17.076Z,10.90
2022-08-31T08:57:49.995Z,8.30
2022-08-31T09:00:24.958Z,11.77
2022-08-31T09:03:24.096Z,7.80
2022-08-31T09:07:09.578Z,5.55
2022-08-31T09:09:49.485Z,8.70
2022-08-31T09:12:30.854Z,8.10
2022-08-31T09:15:33.279Z,4.82
2022-08-31T09:18:07.123Z,5.03
2022-08-31T09:20:36.635Z,5.30
2022-08-31T09:23:08.017Z,5.13
2022-08-31T09:25:53.953Z,4.90
2022-08-31T09:28:44.952Z,6.18
2022-08-31T09:31:39.900Z,8.88
2022-08-31T09:34:36.491Z,5.15
2022-08-31T09:37:25.145Z,5.43
2022-08-31T09:39:55.062Z,5.90
2022-08-31T09:42:31.369Z,7.40
2022-08-31T09:45:30.278Z,8.98
2022-08-31T09:48:01.973Z,5.35
2022-08-31T09:50:42.150Z,7.72
2022-08-31T09:53:41.551Z,5.63
2022-08-31T09:56:21.818Z,6.35
2022-08-31T09:59:01.764Z,6.05
2022-08-31T10:01:45.676Z,6.60
2022-08-31T10:04:43.920Z,6.07
2022-08-31T10:08:04.693Z,6.43
2022-08-31T10:10:39.606Z,5.47
2022-08-31T10:13:34.373Z,6.13
2022-08-31T10:16:34.916Z,6.90
2022-08-31T10:19:13.551Z,6.10
2022-08-31T10:21:54.801Z,5.80
2022-08-31T10:24:34.645Z,5.45
2022-08-31T10:27:14.252Z,6.50
2022-08-31T10:29:59.938Z,5.38
2022-08-31T10:32:43.564Z,5.72
2022-08-31T10:35:48.826Z,6.00
2022-08-31T10:38:36.261Z,5.07
2022-08-31T10:41:13.322Z,5.82
2022-08-31T10:44:02.682Z,5.55
2022-08-31T10:46:34.747Z,5.82
2022-08-31T10:49:06.796Z,5.75
2022-08-31T10:52:18.621Z,6.97
2022-08-31T10:55:06.823Z,5.50
2022-08-31T10:57:44.121Z,6.50
2022-08-31T11:00:42.194Z,5.90
2022-08-31T11:03:44.009Z,6.95
2022-08-31T11:06:35.982Z,6.30
2022-08-31T11:09:22.938Z,6.20
2022-08-31T11:12:20.356Z,6.25
2022-08-31T11:14:58.591Z,6.30
2022-08-31T11:18:06.026Z,7.10
2022-08-31T11:21:11.345Z,5.97
2022-08-31T11:24:02.959Z,5.70
2022-08-31T11:26:50.856Z,5.97
2022-08-31T11:29:49.193Z,7.00
2022-08-31T11:32:37.773Z,6.35
2022-08-31T11:35:10.489Z,6.13
2022-08-31T11:37:54.255Z,6.05
2022-08-31T11:40:42.351Z,6.65
2022-08-31T11:43:36.872Z,6.25
2022-08-31T11:46:26.395Z,5.80
2022-08-31T11:48:56.216Z,6.57
2022-08-31T11:51:37.323Z,6.03
2022-08-31T11:54:36.402Z,5.85
2022-08-31T11:57:07.612Z,6.30
2022-08-31T11:59:43.668Z,5.88
2022-08-31T12:02:21.445Z,6.10
2022-08-31T12:04:52.377Z,5.63
2022-08-31T12:07:44.997Z,5.85
2022-08-31T12:10:16.922Z,5.47
2022-08-31T12:13:31.347Z,5.32
2022-08-31T12:16:05.146Z,5.60
2022-08-31T12:20:01.297Z,5.68
2022-08-31T12:23:30.809Z,6.13
2022-08-31T12:26:54.559Z,5.60
2022-08-31T12:29:37.935Z,5.50
2022-08-31T12:32:36.503Z,5.38
2022-08-31T12:35:19.971Z,5.88
2022-08-31T12:38:04.918Z,5.15
2022-08-31T12:40:52.349Z,4.93
2022-08-31T12:43:28.432Z,5.30
2022-08-31T12:46:08.134Z,5.28
2022-08-31T12:49:18.265Z,6.15
2022-08-31T12:52:38.226Z,5.75
2022-08-31T12:55:13.684Z,5.53
2022-08-31T12:58:11.950Z,6.90
2022-08-31T13:00:44.066Z,6.47
2022-08-31T13:03:31.587Z,6.60
2022-08-31T13:06:13.908Z,6.95
2022-08-31T13:08:50.641Z,6.40
2022-08-31T13:11:40.231Z,7.72
2022-08-31T13:14:24.717Z,8.13
2022-08-31T13:17:18.262Z,7.63
2022-08-31T13:19:58.118Z,8.15
2022-08-31T13:22:45.592Z,8.05
2022-08-31T13:25:35.946Z,7.78
2022-08-31T13:28:13.678Z,7.93
2022-08-31T13:30:55.323Z,8.30
2022-08-31T13:33:40.343Z,8.70
2022-08-31T13:36:32.501Z,8.85
2022-08-31T13:39:25.596Z,9.23
2022-08-31T13:42:08.354Z,7.90
2022-08-31T13:44:45.148Z,8.13
2022-08-31T13:47:24.713Z,6.95
2022-08-31T13:50:24.059Z,8.50
2022-08-31T13:53:25.819Z,7.95
2022-08-31T13:55:53.398Z,7.90
2022-08-31T13:58:31.785Z,8.23
2022-08-31T14:01:24.757Z,8.23
2022-08-31T14:03:59.340Z,7.00
2022-08-31T14:06:39.868Z,7.50
2022-08-31T14:12:03.052Z,7.38
2022-08-31T14:14:45.027Z,7.28
2022-08-31T14:17:42.596Z,6.72
2022-08-31T14:20:39.862Z,7.28
2022-08-31T14:23:34.359Z,7.10
2022-08-31T14:26:15.659Z,6.60
2022-08-31T14:28:53.688Z,6.97
2022-08-31T14:31:57.992Z,7.05
2022-08-31T14:34:35.065Z,7.50
2022-08-31T14:37:11.507Z,6.40
2022-08-31T14:39:44.128Z,7.38
2022-08-31T14:42:35.123Z,6.78
2022-08-31T14:45:18.989Z,7.28
2022-08-31T14:47:52.713Z,5.97
2022-08-31T14:50:25.499Z,5.90
2022-08-31T14:52:55.539Z,5.97
2022-08-31T14:55:27.856Z,6.40
2022-08-31T14:58:10.171Z,5.70
2022-08-31T15:00:51.074Z,5.93
2022-08-31T15:03:24.661Z,5.63
2022-08-31T15:05:52.982Z,5.30
2022-08-31T15:08:30.222Z,5.90
2022-08-31T15:11:10.948Z,6.05
2022-08-31T15:13:39.807Z,5.13
2022-08-31T15:16:13.418Z,5.97
2022-08-31T15:18:44.726Z,6.72
2022-08-31T15:23:42.222Z,5.68
2022-08-31T15:26:15.116Z,6.68
2022-08-31T15:28:43.391Z,5.93
2022-08-31T15:31:27.393Z,6.25
2022-08-31T15:34:00.694Z,6.32
2022-08-31T15:36:28.877Z,6.78
2022-08-31T15:38:59.009Z,7.03
2022-08-31T15:41:29.867Z,6.47
2022-08-31T15:43:57.972Z,6.85
2022-08-31T15:46:44.975Z,6.60
2022-08-31T15:49:14.828Z,6.88
2022-08-31T15:51:49.292Z,6.32
2022-08-31T15:54:22.968Z,7.25
2022-08-31T15:56:52.580Z,7.40
2022-08-31T15:59:23.309Z,7.33
2022-08-31T16:01:53.831Z,6.65
2022-08-31T16:04:25.080Z,7.77
2022-08-31T16:09:25.041Z,6.28
2022-08-31T16:11:53.589Z,6.72
2022-08-31T16:14:23.371Z,7.53
2022-08-31T16:16:52.108Z,6.70
2022-08-31T16:19:34.535Z,7.05
2022-08-31T16:22:08.611Z,8.13
2022-08-31T16:24:38.560Z,7.00
2022-08-31T16:27:12.382Z,7.72
2022-08-31T16:29:46.100Z,6.40
2022-08-31T16:32:14.830Z,6.53
2022-08-31T16:34:43.392Z,6.88
2022-08-31T16:37:12.360Z,7.03
2022-08-31T16:39:47.100Z,20.35
2022-08-31T16:42:16.280Z,7.10
2022-08-31T16:44:47.942Z,6.35
2022-08-31T16:47:19.337Z,6.80
2022-08-31T16:49:48.341Z,5.68
2022-08-31T16:52:26.843Z,8.05
2022-08-31T16:54:59.490Z,5.78
2022-08-31T16:57:32.854Z,7.13
2022-08-31T17:00:03.180Z,6.45
2022-08-31T17:02:33.605Z,6.38
2022-08-31T17:05:05.495Z,6.10
2022-08-31T17:07:34.017Z,5.65
2022-08-31T17:10:06.523Z,6.07
2022-08-31T17:12:37.219Z,5.95
2022-08-31T17:15:09.624Z,6.15
2022-08-31T17:17:38.527Z,6.18
2022-08-31T17:20:08.512Z,5.68
2022-08-31T17:22:37.744Z,6.00
2022-08-31T17:25:08.452Z,6.07
2022-08-31T17:27:36.672Z,5.63
2022-08-31T17:30:08.150Z,5.72
2022-08-31T17:32:45.257Z,6.15
2022-08-31T17:35:19.301Z,6.20
2022-08-31T17:37:48.292Z,6.22
2022-08-31T17:40:16.954Z,5.75
2022-08-31T17:42:50.109Z,6.22
2022-08-31T17:45:20.100Z,5.72
2022-08-31T17:47:47.959Z,5.95
2022-08-31T17:50:20.203Z,5.53
2022-08-31T17:52:48.355Z,5.80
2022-08-31T17:55:17.712Z,6.05
2022-08-31T17:57:46.378Z,5.75
2022-08-31T18:00:16.733Z,5.95
2022-08-31T18:02:50.083Z,5.70
2022-08-31T18:05:22.904Z,5.68
2022-08-31T18:07:51.527Z,6.13
2022-08-31T18:10:21.260Z,6.72
2022-08-31T18:12:49.929Z,6.45
2022-08-31T18:15:19.237Z,7.18
2022-08-31T18:17:48.534Z,6.20
2022-08-31T18:20:17.922Z,7.78
2022-08-31T18:22:51.515Z,6.43
2022-08-31T18:25:21.336Z,7.35
2022-08-31T18:27:49.676Z,6.20
2022-08-31T18:30:18.523Z,6.85
2022-08-31T18:32:49.511Z,6.82
2022-08-31T18:35:17.959Z,6.78
2022-08-31T18:37:47.685Z,6.28
2022-08-31T18:40:36.768Z,9.15
2022-08-31T18:43:24.524Z,5.97
2022-08-31T18:45:53.966Z,6.03
2022-08-31T18:48:27.949Z,5.57
2022-08-31T18:50:59.377Z,6.30
2022-08-31T18:53:30.493Z,6.68
2022-08-31T18:56:11.810Z,5.97
2022-08-31T18:58:41.758Z,6.65
2022-08-31T19:01:13.898Z,6.50
2022-08-31T19:03:42.955Z,6.43
2022-08-31T19:06:26.087Z,6.40
2022-08-31T19:08:55.605Z,5.95
2022-08-31T19:11:27.038Z,5.47
2022-08-31T19:13:56.009Z,7.20
2022-08-31T19:16:29.326Z,6.38
2022-08-31T19:18:58.645Z,6.20
2022-08-31T19:21:33.651Z,5.78
2022-08-31T19:24:07.407Z,5.68
2022-08-31T19:26:47.164Z,5.25
2022-08-31T19:29:22.936Z,5.68
2022-08-31T19:31:51.846Z,6.82
2022-08-31T19:34:25.827Z,5.72
2022-08-31T19:36:56.471Z,5.20
2022-08-31T19:39:31.800Z,5.63
2022-08-31T19:42:08.867Z,5.65
2022-08-31T19:47:26.915Z,5.57
2022-08-31T19:49:55.276Z,5.90
2022-08-31T19:52:25.813Z,6.18
2022-08-31T19:54:54.679Z,6.25
2022-08-31T19:57:24.349Z,6.43
2022-08-31T19:59:53.496Z,6.22
2022-08-31T20:02:21.790Z,7.53
2022-08-31T20:04:50.442Z,6.47
2022-08-31T20:07:20.509Z,6.05
2022-08-31T20:09:48.650Z,7.28
2022-08-31T20:12:18.949Z,7.38
2022-08-31T20:14:48.420Z,7.73
2022-08-31T20:17:16.708Z,6.93
2022-08-31T20:19:46.889Z,6.88
2022-08-31T20:24:45.374Z,6.43
2022-08-31T20:27:18.792Z,6.70
2022-08-31T20:29:48.248Z,9.18
2022-08-31T20:32:16.937Z,6.68
2022-08-31T20:34:45.354Z,7.10
2022-08-31T20:37:13.911Z,7.10
2022-08-31T20:39:42.278Z,7.70
2022-08-31T20:42:10.871Z,7.25
2022-08-31T20:44:39.226Z,7.50
2022-08-31T20:47:29.830Z,8.80
2022-08-31T20:50:02.698Z,8.52
2022-08-31T20:52:35.517Z,8.88
2022-08-31T20:55:08.135Z,7.40
2022-08-31T20:57:43.925Z,8.10
2022-08-31T21:00:15.938Z,7.35
2022-08-31T21:02:47.534Z,7.53
2022-08-31T21:05:37.503Z,9.98
2022-08-31T21:08:06.055Z,8.23
2022-08-31T21:10:37.767Z,8.35
2022-08-31T21:13:12.509Z,8.05
2022-08-31T21:15:46.449Z,9.18
2022-08-31T21:18:17.954Z,8.30
2022-08-31T21:23:16.307Z,7.40
2022-08-31T21:25:46.753Z,8.25
2022-08-31T21:28:18.074Z,8.05
2022-08-31T21:30:50.572Z,7.82
2022-08-31T21:33:22.473Z,8.00
2022-08-31T21:36:00.798Z,8.27
2022-08-31T21:38:29.460Z,8.05
2022-08-31T21:40:57.817Z,8.23
2022-08-31T21:43:27.289Z,7.95
2022-08-31T21:46:04.587Z,8.15
2022-08-31T21:48:35.154Z,8.43
2022-08-31T21:51:21.226Z,7.20
2022-08-31T21:54:01.572Z,6.45
2022-08-31T21:56:37.436Z,5.72
2022-08-31T21:59:07.963Z,6.13
2022-08-31T22:01:37.925Z,5.40
2022-08-31T22:04:10.243Z,5.82
2022-08-31T22:06:42.841Z,5.50
2022-08-31T22:09:15.799Z,6.97
2022-08-31T22:11:50.812Z,5.47
2022-08-31T22:14:27.067Z,5.43
2022-08-31T22:16:58.893Z,5.68
2022-08-31T22:19:28.482Z,6.10
2022-08-31T22:21:59.380Z,6.88
2022-08-31T22:24:32.569Z,5.00
2022-08-31T22:27:08.045Z,5.68
2022-08-31T22:29:40.937Z,4.72
2022-08-31T22:32:15.111Z,4.93
2022-08-31T22:34:44.054Z,4.68
2022-08-31T22:37:14.124Z,4.43
2022-08-31T22:39:43.915Z,5.65
2022-08-31T22:42:13.473Z,4.60
2022-08-31T22:44:43.990Z,4.95
2022-08-31T22:47:12.393Z,4.85
2022-08-31T22:49:40.778Z,4.25
2022-08-31T22:52:12.986Z,4.47
2022-08-31T22:54:45.139Z,5.90
2022-08-31T22:57:14.294Z,4.35
2022-08-31T22:59:42.553Z,4.88
2022-08-31T23:02:10.799Z,4.68
2022-08-31T23:04:43.827Z,5.90
2022-08-31T23:07:16.801Z,4.63
2022-08-31T23:09:46.255Z,4.65
2022-08-31T23:12:14.264Z,4.47
2022-08-31T23:14:44.321Z,3.95
2022-08-31T23:17:14.462Z,3.42
2022-08-31T23:19:43.978Z,3.92
2022-08-31T23:22:15.146Z,5.15
2022-08-31T23:24:48.646Z,4.10
2022-08-31T23:27:21.780Z,3.80
2022-08-31T23:29:55.934Z,3.50
2022-08-31T23:32:29.147Z,3.65
2022-08-31T23:34:58.572Z,3.30
2022-08-31T23:37:27.897Z,3.20
2022-08-31T23:39:58.284Z,4.03
2022-08-31T23:42:29.690Z,3.38
2022-08-31T23:44:59.025Z,3.03
2022-08-31T23:47:30.974Z,3.00
2022-08-31T23:50:05.031Z,2.97
2022-08-31T23:52:37.589Z,3.30
2022-08-31T23:55:06.991Z,6.82
2022-08-31T23:57:38.160Z,2.72
